createdAt,value
2018-07-31T00:01:23.411Z,14.47
2018-07-31T00:03:51.522Z,13.37
2018-07-31T00:06:24.607Z,13.10
2018-07-31T00:08:54.157Z,14.87
2018-07-31T00:11:22.185Z,13.72
2018-07-31T00:13:50.213Z,13.27
2018-07-31T00:16:18.269Z,13.55
2018-07-31T00:18:46.337Z,12.47
2018-07-31T00:21:14.394Z,11.85
2018-07-31T00:23:42.443Z,13.20
2018-07-31T00:26:10.481Z,12.20
2018-07-31T00:28:38.523Z,12.40
2018-07-31T00:31:06.560Z,14.47
2018-07-31T00:33:34.960Z,11.27
2018-07-31T00:36:03.452Z,12.93
2018-07-31T00:38:31.478Z,11.70
2018-07-31T00:40:59.572Z,10.50
2018-07-31T00:43:27.609Z,11.53
2018-07-31T00:45:55.636Z,11.37
2018-07-31T00:48:23.666Z,10.07
2018-07-31T00:50:51.705Z,9.73
2018-07-31T00:53:19.725Z,9.63
2018-07-31T00:55:47.758Z,7.77
2018-07-31T00:58:15.843Z,8.47
2018-07-31T01:00:43.860Z,11.47
2018-07-31T01:03:11.884Z,7.50
2018-07-31T01:05:39.916Z,7.90
2018-07-31T01:08:07.945Z,10.60
2018-07-31T01:10:35.996Z,7.07
2018-07-31T01:13:04.836Z,7.67
2018-07-31T01:15:32.874Z,7.30
2018-07-31T01:18:01.339Z,8.47
2018-07-31T01:20:29.359Z,5.93
2018-07-31T01:22:57.380Z,8.50
2018-07-31T01:25:25.499Z,8.33
2018-07-31T01:27:53.511Z,7.60
2018-07-31T01:30:21.560Z,7.43
2018-07-31T01:32:49.592Z,11.83
2018-07-31T01:35:17.629Z,7.20
2018-07-31T01:37:45.664Z,8.30
2018-07-31T01:40:13.708Z,7.12
2018-07-31T01:42:41.741Z,7.10
2018-07-31T01:45:09.794Z,7.33
2018-07-31T01:47:37.833Z,7.03
2018-07-31T01:50:05.891Z,5.67
2018-07-31T01:52:33.928Z,5.90
2018-07-31T01:55:01.959Z,7.93
2018-07-31T01:57:30.000Z,7.43
2018-07-31T01:59:58.040Z,6.67
2018-07-31T02:02:26.105Z,6.73
2018-07-31T02:04:54.133Z,6.10
2018-07-31T02:07:22.164Z,6.45
2018-07-31T02:09:50.373Z,7.30
2018-07-31T02:12:18.452Z,7.53
2018-07-31T02:14:46.457Z,6.00
2018-07-31T02:17:14.488Z,6.43
2018-07-31T02:19:42.502Z,6.07
2018-07-31T02:22:10.525Z,6.07
2018-07-31T02:24:38.556Z,6.27
2018-07-31T02:27:06.591Z,6.13
2018-07-31T02:29:40.050Z,8.00
2018-07-31T02:32:08.071Z,7.53
2018-07-31T02:34:36.104Z,5.60
2018-07-31T02:37:05.452Z,5.03
2018-07-31T02:39:33.473Z,7.03
2018-07-31T02:42:02.308Z,6.60
2018-07-31T02:44:30.517Z,5.77
2018-07-31T02:46:58.592Z,6.20
2018-07-31T02:49:26.591Z,6.80
2018-07-31T02:51:54.619Z,4.70
2018-07-31T02:54:23.117Z,5.47
2018-07-31T02:56:51.211Z,5.97
2018-07-31T02:59:19.233Z,7.40
2018-07-31T03:01:47.259Z,5.80
2018-07-31T03:04:15.306Z,5.27
2018-07-31T03:06:43.353Z,5.00
2018-07-31T03:09:11.376Z,5.83
2018-07-31T03:11:39.408Z,4.67
2018-07-31T03:14:07.463Z,5.20
2018-07-31T03:16:35.487Z,6.97
2018-07-31T03:19:05.586Z,5.40
2018-07-31T03:21:33.600Z,5.30
2018-07-31T03:24:01.628Z,6.80
2018-07-31T03:26:29.820Z,5.50
2018-07-31T03:28:57.849Z,5.37
2018-07-31T03:31:25.870Z,6.30
2018-07-31T03:33:53.906Z,6.23
2018-07-31T03:36:21.942Z,4.65
2018-07-31T03:38:49.978Z,7.23
2018-07-31T03:41:17.997Z,5.30
2018-07-31T03:43:46.021Z,5.43
2018-07-31T03:46:14.145Z,4.87
2018-07-31T03:48:42.188Z,6.60
2018-07-31T03:51:10.381Z,5.40
2018-07-31T03:53:38.420Z,6.40
2018-07-31T03:56:06.451Z,5.93
2018-07-31T03:58:34.495Z,5.03
2018-07-31T04:01:02.539Z,4.67
2018-07-31T04:03:30.576Z,5.23
2018-07-31T04:05:58.627Z,4.67
2018-07-31T04:08:26.648Z,5.03
2018-07-31T04:10:54.668Z,6.63
2018-07-31T04:13:22.706Z,5.10
2018-07-31T04:15:50.739Z,6.63
2018-07-31T04:18:18.761Z,6.23
2018-07-31T04:20:46.785Z,4.77
2018-07-31T04:23:14.832Z,5.37
2018-07-31T04:25:42.845Z,6.63
2018-07-31T04:28:10.900Z,6.80
2018-07-31T04:30:38.934Z,7.47
2018-07-31T04:33:06.959Z,6.43
2018-07-31T04:35:35.146Z,5.90
2018-07-31T04:38:03.191Z,6.67
2018-07-31T04:40:31.220Z,7.80
2018-07-31T04:42:59.260Z,7.13
2018-07-31T04:45:27.296Z,7.33
2018-07-31T04:47:55.341Z,6.00
2018-07-31T04:50:23.426Z,5.70
2018-07-31T04:52:51.806Z,6.77
2018-07-31T04:55:19.842Z,5.90
2018-07-31T04:57:48.488Z,8.33
2018-07-31T05:00:16.517Z,6.13
2018-07-31T05:02:44.552Z,7.90
2018-07-31T05:05:12.595Z,7.50
2018-07-31T05:07:40.640Z,7.33
2018-07-31T05:10:12.301Z,6.60
2018-07-31T05:12:41.260Z,7.17
2018-07-31T05:15:08.372Z,6.93
2018-07-31T05:17:36.387Z,8.30
2018-07-31T05:20:04.989Z,6.40
2018-07-31T05:22:33.029Z,5.90
2018-07-31T05:25:01.053Z,7.57
2018-07-31T05:27:29.083Z,7.67
2018-07-31T05:29:57.110Z,6.93
2018-07-31T05:32:25.171Z,6.73
2018-07-31T05:34:53.200Z,7.60
2018-07-31T05:37:21.261Z,9.00
2018-07-31T05:39:49.753Z,7.73
2018-07-31T05:42:17.837Z,8.97
2018-07-31T05:44:45.870Z,7.73
2018-07-31T05:47:13.952Z,7.70
2018-07-31T05:49:41.993Z,8.83
2018-07-31T05:52:10.042Z,7.87
2018-07-31T05:54:38.108Z,8.23
2018-07-31T05:57:06.159Z,9.53
2018-07-31T05:59:34.205Z,11.00
2018-07-31T06:02:02.259Z,8.97
2018-07-31T06:04:31.577Z,8.93
2018-07-31T06:07:00.065Z,8.70
2018-07-31T06:09:28.165Z,10.63
2018-07-31T06:11:56.202Z,8.57
2018-07-31T06:14:24.299Z,9.70
2018-07-31T06:16:52.352Z,10.17
2018-07-31T06:19:20.376Z,8.63
2018-07-31T06:21:48.418Z,8.70
2018-07-31T06:24:16.476Z,9.85
2018-07-31T06:26:44.500Z,9.07
2018-07-31T06:29:12.532Z,9.80
2018-07-31T06:31:40.572Z,8.03
2018-07-31T06:34:08.628Z,9.40
2018-07-31T06:36:36.648Z,9.93
2018-07-31T06:39:08.269Z,9.88
2018-07-31T06:41:36.315Z,7.90
2018-07-31T06:44:05.088Z,8.03
2018-07-31T06:46:33.430Z,7.87
2018-07-31T06:49:01.449Z,8.67
2018-07-31T06:51:29.484Z,7.03
2018-07-31T06:53:57.526Z,7.87
2018-07-31T06:56:25.589Z,7.43
2018-07-31T06:58:53.641Z,7.10
2018-07-31T07:01:22.477Z,6.27
2018-07-31T07:03:50.526Z,6.43
2018-07-31T07:06:18.557Z,6.27
2018-07-31T07:08:46.582Z,6.90
2018-07-31T07:11:14.885Z,7.08
2018-07-31T07:13:42.926Z,6.07
2018-07-31T07:16:11.465Z,5.55
2018-07-31T07:18:39.488Z,6.07
2018-07-31T07:21:08.024Z,6.93
2018-07-31T07:23:36.412Z,6.33
2018-07-31T07:26:04.966Z,7.47
2018-07-31T07:28:33.020Z,7.70
2018-07-31T07:31:01.041Z,7.30
2018-07-31T07:33:29.129Z,9.17
2018-07-31T07:35:57.428Z,7.47
2018-07-31T07:38:25.768Z,6.87
2018-07-31T07:40:53.792Z,8.37
2018-07-31T07:43:21.830Z,7.23
2018-07-31T07:45:49.861Z,7.90
2018-07-31T07:48:17.933Z,8.43
2018-07-31T07:50:45.970Z,10.17
2018-07-31T07:53:14.034Z,9.10
2018-07-31T07:55:42.175Z,7.80
2018-07-31T07:58:10.636Z,9.70
2018-07-31T08:00:38.669Z,8.67
2018-07-31T08:03:06.733Z,8.43
2018-07-31T08:05:34.751Z,8.50
2018-07-31T08:08:03.624Z,6.83
2018-07-31T08:10:31.665Z,7.40
2018-07-31T08:12:59.709Z,8.40
2018-07-31T08:15:27.763Z,9.00
2018-07-31T08:17:55.825Z,8.33
2018-07-31T08:20:23.959Z,8.47
2018-07-31T08:22:51.949Z,7.35
2018-07-31T08:25:20.001Z,8.50
2018-07-31T08:27:48.068Z,8.93
2018-07-31T08:30:16.212Z,10.30
2018-07-31T08:32:44.268Z,8.53
2018-07-31T08:35:12.305Z,8.48
2018-07-31T08:37:40.340Z,8.83
2018-07-31T08:40:08.381Z,8.60
2018-07-31T08:42:36.567Z,8.00
2018-07-31T08:45:05.506Z,7.50
2018-07-31T08:47:33.573Z,8.10
2018-07-31T08:50:01.614Z,7.00
2018-07-31T08:52:29.641Z,7.00
2018-07-31T08:54:57.686Z,6.53
2018-07-31T08:57:25.893Z,8.47
2018-07-31T08:59:53.950Z,9.87
2018-07-31T09:02:21.988Z,6.90
2018-07-31T09:04:50.107Z,7.00
2018-07-31T09:07:18.149Z,7.35
2018-07-31T09:09:46.341Z,6.70
2018-07-31T09:12:14.429Z,5.93
2018-07-31T09:14:42.447Z,7.57
2018-07-31T09:17:11.115Z,6.97
2018-07-31T09:19:39.161Z,6.20
2018-07-31T09:22:07.242Z,7.70
2018-07-31T09:24:35.435Z,8.23
2018-07-31T09:27:03.397Z,6.23
2018-07-31T09:29:31.417Z,5.60
2018-07-31T09:31:59.468Z,5.73
2018-07-31T09:34:27.652Z,5.53
2018-07-31T09:36:55.712Z,5.17
2018-07-31T09:39:24.045Z,4.73
2018-07-31T09:41:52.196Z,4.73
2018-07-31T09:44:20.230Z,4.47
2018-07-31T09:46:48.259Z,6.07
2018-07-31T09:49:16.292Z,4.20
2018-07-31T09:51:44.498Z,3.60
2018-07-31T09:54:12.521Z,4.07
2018-07-31T09:56:40.845Z,4.83
2018-07-31T09:59:09.016Z,4.47
2018-07-31T10:01:37.048Z,4.30
2018-07-31T10:04:05.067Z,5.53
2018-07-31T10:06:33.093Z,3.37
2018-07-31T10:09:01.337Z,3.40
2018-07-31T10:11:29.557Z,4.00
2018-07-31T10:13:57.595Z,5.17
2018-07-31T10:16:25.729Z,3.20
2018-07-31T10:18:53.892Z,4.40
2018-07-31T10:21:21.964Z,4.73
2018-07-31T10:23:49.980Z,4.83
2018-07-31T10:26:18.003Z,3.70
2018-07-31T10:28:46.377Z,3.27
2018-07-31T10:31:14.406Z,3.37
2018-07-31T10:33:42.449Z,4.70
2018-07-31T10:36:10.485Z,3.10
2018-07-31T10:38:38.516Z,3.23
2018-07-31T10:41:06.797Z,4.33
2018-07-31T10:43:35.163Z,2.60
2018-07-31T10:46:03.144Z,2.77
2018-07-31T10:48:31.292Z,2.20
2018-07-31T10:50:59.406Z,3.70
2018-07-31T10:53:27.384Z,4.13
2018-07-31T10:55:55.424Z,2.83
2018-07-31T10:58:23.861Z,2.57
2018-07-31T11:00:51.822Z,4.23
2018-07-31T11:03:19.860Z,3.17
2018-07-31T11:05:47.886Z,4.17
2018-07-31T11:08:15.904Z,2.43
2018-07-31T11:10:43.922Z,2.50
2018-07-31T11:13:12.209Z,5.13
2018-07-31T11:15:40.528Z,4.13
2018-07-31T11:18:08.576Z,4.70
2018-07-31T11:20:37.519Z,4.13
2018-07-31T11:23:05.580Z,4.23
2018-07-31T11:25:33.861Z,5.50
2018-07-31T11:28:01.906Z,4.17
2018-07-31T11:30:30.297Z,4.73
2018-07-31T11:32:58.384Z,5.67
2018-07-31T11:35:26.420Z,5.50
2018-07-31T11:37:54.472Z,6.00
2018-07-31T11:40:22.513Z,6.42
2018-07-31T11:42:50.553Z,5.43
2018-07-31T11:45:18.615Z,5.40
2018-07-31T11:47:46.878Z,5.97
2018-07-31T11:50:14.939Z,6.67
2018-07-31T11:52:42.966Z,4.37
2018-07-31T11:55:10.991Z,6.27
2018-07-31T11:57:39.033Z,5.17
2018-07-31T12:00:09.893Z,4.50
2018-07-31T12:02:38.190Z,5.43
2018-07-31T12:05:06.590Z,4.40
2018-07-31T12:07:34.625Z,3.77
2018-07-31T12:10:02.781Z,3.47
2018-07-31T12:12:30.811Z,4.33
2018-07-31T12:14:58.873Z,3.40
2018-07-31T12:17:27.073Z,3.67
2018-07-31T12:19:55.150Z,2.60
2018-07-31T12:22:23.198Z,2.93
2018-07-31T12:24:51.250Z,3.00
2018-07-31T12:27:19.303Z,4.17
2018-07-31T12:29:47.414Z,2.43
2018-07-31T12:32:15.477Z,3.73
2018-07-31T12:34:43.556Z,2.70
2018-07-31T12:37:11.640Z,2.80
2018-07-31T12:39:39.673Z,3.07
2018-07-31T12:42:07.784Z,4.73
2018-07-31T12:44:35.809Z,3.90
2018-07-31T12:47:04.540Z,2.72
2018-07-31T12:49:32.604Z,2.87
2018-07-31T12:52:00.657Z,2.83
2018-07-31T12:54:28.679Z,2.33
2018-07-31T12:56:56.804Z,1.70
2018-07-31T12:59:24.831Z,1.80
2018-07-31T13:01:52.878Z,3.07
2018-07-31T13:04:20.903Z,2.23
2018-07-31T13:06:48.938Z,4.43
2018-07-31T13:09:16.986Z,2.83
2018-07-31T13:11:45.007Z,3.23
2018-07-31T13:14:13.317Z,3.37
2018-07-31T13:16:41.371Z,1.97
2018-07-31T13:19:09.396Z,3.58
2018-07-31T13:21:37.776Z,2.27
2018-07-31T13:24:05.793Z,2.10
2018-07-31T13:26:33.817Z,3.50
2018-07-31T13:29:01.849Z,5.90
2018-07-31T13:31:29.865Z,6.83
2018-07-31T13:33:57.905Z,2.60
2018-07-31T13:36:25.928Z,2.90
2018-07-31T13:38:53.948Z,2.17
2018-07-31T13:41:21.976Z,2.40
2018-07-31T13:43:50.281Z,5.10
2018-07-31T13:46:18.233Z,2.83
2018-07-31T13:48:46.294Z,1.93
2018-07-31T13:51:14.937Z,2.33
2018-07-31T13:53:42.971Z,6.13
2018-07-31T13:56:11.009Z,5.55
2018-07-31T13:58:39.045Z,6.10
2018-07-31T14:01:07.241Z,6.63
2018-07-31T14:03:35.291Z,5.40
2018-07-31T14:06:03.421Z,5.80
2018-07-31T14:08:31.454Z,5.50
2018-07-31T14:10:59.488Z,5.93
2018-07-31T14:13:27.526Z,6.13
2018-07-31T14:15:55.560Z,6.37
2018-07-31T14:18:23.700Z,6.80
2018-07-31T14:20:51.686Z,6.47
2018-07-31T14:23:19.790Z,6.43
2018-07-31T14:25:47.835Z,5.97
2018-07-31T14:28:15.884Z,8.07
2018-07-31T14:30:44.010Z,6.17
2018-07-31T14:33:12.033Z,6.92
2018-07-31T14:35:40.091Z,6.47
2018-07-31T14:38:08.334Z,6.07
2018-07-31T14:40:36.488Z,5.90
2018-07-31T14:43:04.988Z,6.73
2018-07-31T14:45:33.037Z,6.40
2018-07-31T14:48:01.314Z,7.87
2018-07-31T14:50:33.224Z,6.63
2018-07-31T14:53:01.337Z,5.87
2018-07-31T14:55:29.377Z,5.93
2018-07-31T14:57:57.408Z,6.07
2018-07-31T15:00:25.769Z,5.67
2018-07-31T15:02:53.809Z,5.70
2018-07-31T15:05:21.894Z,6.03
2018-07-31T15:07:49.998Z,6.03
2018-07-31T15:10:18.184Z,5.17
2018-07-31T15:12:46.543Z,6.23
2018-07-31T15:15:14.647Z,5.25
2018-07-31T15:17:42.687Z,7.43
2018-07-31T15:20:10.724Z,4.70
2018-07-31T15:22:38.848Z,4.53
2018-07-31T15:25:07.089Z,4.90
2018-07-31T15:27:35.130Z,4.80
2018-07-31T15:30:03.206Z,4.57
2018-07-31T15:32:31.385Z,4.10
2018-07-31T15:34:59.442Z,3.83
2018-07-31T15:37:27.503Z,4.70
2018-07-31T15:39:55.549Z,3.80
2018-07-31T15:42:23.573Z,4.10
2018-07-31T15:44:51.661Z,4.50
2018-07-31T15:47:19.713Z,4.10
2018-07-31T15:49:47.817Z,3.37
2018-07-31T15:52:16.516Z,3.17
2018-07-31T15:54:44.570Z,4.57
2018-07-31T15:57:12.610Z,6.03
2018-07-31T15:59:40.691Z,5.70
2018-07-31T16:02:08.921Z,4.03
2018-07-31T16:04:36.948Z,3.63
2018-07-31T16:07:05.093Z,4.33
2018-07-31T16:09:33.125Z,5.13
2018-07-31T16:12:01.156Z,5.63
2018-07-31T16:14:29.364Z,2.73
2018-07-31T16:16:57.398Z,5.43
2018-07-31T16:19:25.436Z,3.17
2018-07-31T16:21:53.518Z,3.17
2018-07-31T16:24:21.560Z,3.27
2018-07-31T16:26:49.625Z,5.47
2018-07-31T16:29:17.684Z,3.43
2018-07-31T16:31:45.727Z,4.23
2018-07-31T16:34:13.754Z,2.50
2018-07-31T16:36:41.825Z,4.30
2018-07-31T16:39:10.880Z,2.40
2018-07-31T16:41:38.962Z,4.73
2018-07-31T16:44:07.016Z,3.83
2018-07-31T16:46:35.069Z,3.43
2018-07-31T16:49:03.170Z,3.13
2018-07-31T16:51:31.261Z,4.10
2018-07-31T16:53:59.393Z,4.20
2018-07-31T16:56:27.438Z,2.50
2018-07-31T16:58:55.482Z,4.13
2018-07-31T17:01:23.500Z,3.07
2018-07-31T17:03:51.541Z,3.70
2018-07-31T17:06:19.616Z,5.93
2018-07-31T17:08:47.665Z,5.37
2018-07-31T17:11:15.713Z,2.40
2018-07-31T17:13:43.766Z,3.70
2018-07-31T17:16:11.806Z,4.22
2018-07-31T17:18:39.826Z,5.70
2018-07-31T17:21:07.865Z,3.00
2018-07-31T17:23:35.916Z,3.47
2018-07-31T17:26:03.981Z,3.97
2018-07-31T17:28:32.042Z,2.47
2018-07-31T17:31:00.045Z,2.77
2018-07-31T17:33:28.087Z,2.40
2018-07-31T17:35:56.133Z,2.70
2018-07-31T17:38:24.167Z,2.60
2018-07-31T17:40:52.253Z,4.93
2018-07-31T17:43:20.302Z,3.90
2018-07-31T17:45:48.345Z,4.20
2018-07-31T17:48:16.604Z,3.95
2018-07-31T17:50:44.822Z,3.62
2018-07-31T17:53:13.132Z,3.85
2018-07-31T17:55:41.166Z,4.17
2018-07-31T17:58:09.217Z,5.22
2018-07-31T18:00:37.246Z,2.97
2018-07-31T18:03:05.280Z,3.57
2018-07-31T18:05:33.332Z,5.40
2018-07-31T18:08:01.656Z,6.23
2018-07-31T18:10:29.861Z,3.60
2018-07-31T18:12:57.892Z,6.03
2018-07-31T18:15:25.940Z,5.50
2018-07-31T18:17:54.061Z,4.73
2018-07-31T18:20:22.127Z,8.03
2018-07-31T18:22:50.173Z,3.40
2018-07-31T18:25:18.257Z,3.37
2018-07-31T18:27:46.289Z,3.73
2018-07-31T18:30:14.335Z,3.60
2018-07-31T18:32:42.586Z,3.17
2018-07-31T18:35:10.606Z,2.52
2018-07-31T18:37:38.640Z,3.73
2018-07-31T18:40:07.063Z,2.50
2018-07-31T18:42:35.246Z,4.00
2018-07-31T18:45:03.452Z,5.17
2018-07-31T18:47:32.045Z,5.53
2018-07-31T18:50:00.090Z,5.77
2018-07-31T18:52:28.308Z,3.80
2018-07-31T18:54:56.342Z,3.50
2018-07-31T18:57:24.416Z,3.77
2018-07-31T18:59:52.838Z,2.57
2018-07-31T19:02:20.873Z,3.10
2018-07-31T19:04:48.916Z,4.20
2018-07-31T19:07:17.026Z,3.73
2018-07-31T19:09:45.091Z,4.03
2018-07-31T19:12:13.110Z,2.37
2018-07-31T19:14:41.169Z,2.77
2018-07-31T19:17:09.216Z,3.60
2018-07-31T19:19:37.273Z,2.70
2018-07-31T19:22:05.317Z,2.77
2018-07-31T19:24:33.350Z,3.17
2018-07-31T19:27:01.684Z,2.63
2018-07-31T19:29:30.371Z,3.73
2018-07-31T19:31:58.445Z,3.63
2018-07-31T19:34:27.005Z,3.77
2018-07-31T19:36:55.155Z,3.47
2018-07-31T19:39:23.357Z,10.47
2018-07-31T19:41:51.626Z,4.90
2018-07-31T19:44:19.574Z,5.85
2018-07-31T19:46:47.589Z,4.33
2018-07-31T19:49:15.653Z,2.20
2018-07-31T19:51:43.652Z,4.07
2018-07-31T19:54:11.777Z,2.57
2018-07-31T19:56:39.819Z,3.30
2018-07-31T19:59:07.888Z,2.80
2018-07-31T20:01:35.945Z,4.70
2018-07-31T20:04:05.106Z,6.53
2018-07-31T20:06:33.920Z,3.53
2018-07-31T20:09:01.998Z,3.93
2018-07-31T20:11:30.070Z,2.10
2018-07-31T20:13:58.213Z,3.60
2018-07-31T20:16:26.282Z,2.90
2018-07-31T20:18:54.506Z,4.17
2018-07-31T20:21:22.901Z,3.35
2018-07-31T20:23:50.907Z,3.73
2018-07-31T20:26:19.049Z,2.30
2018-07-31T20:28:47.175Z,3.50
2018-07-31T20:31:15.225Z,4.25
2018-07-31T20:33:43.274Z,3.70
2018-07-31T20:36:11.360Z,3.67
2018-07-31T20:38:39.592Z,4.23
2018-07-31T20:41:07.648Z,2.93
2018-07-31T20:43:35.679Z,4.50
2018-07-31T20:46:03.745Z,3.27
2018-07-31T20:48:31.816Z,1.90
2018-07-31T20:50:59.853Z,2.20
2018-07-31T20:53:27.925Z,4.60
2018-07-31T20:55:55.959Z,4.87
2018-07-31T20:58:24.004Z,3.90
2018-07-31T21:00:52.063Z,3.00
2018-07-31T21:03:20.114Z,4.50
2018-07-31T21:05:48.166Z,3.23
2018-07-31T21:08:16.205Z,2.83
2018-07-31T21:10:44.258Z,4.13
2018-07-31T21:13:12.296Z,2.92
2018-07-31T21:15:40.323Z,3.30
2018-07-31T21:18:08.435Z,3.80
2018-07-31T21:20:36.513Z,3.63
2018-07-31T21:23:04.701Z,4.40
2018-07-31T21:25:32.748Z,3.33
2018-07-31T21:28:00.798Z,4.80
2018-07-31T21:30:28.808Z,2.63
2018-07-31T21:32:56.867Z,4.57
2018-07-31T21:35:25.114Z,5.53
2018-07-31T21:37:53.143Z,4.00
2018-07-31T21:40:21.186Z,2.72
2018-07-31T21:42:49.246Z,2.50
2018-07-31T21:45:17.280Z,4.70
2018-07-31T21:47:45.406Z,2.07
2018-07-31T21:50:13.346Z,3.27
2018-07-31T21:52:41.390Z,3.27
2018-07-31T21:55:09.568Z,2.90
2018-07-31T21:57:37.609Z,3.57
2018-07-31T22:00:08.099Z,2.27
2018-07-31T22:02:36.141Z,1.83
2018-07-31T22:05:04.920Z,1.70
2018-07-31T22:07:32.953Z,2.53
2018-07-31T22:10:01.064Z,2.07
2018-07-31T22:12:29.090Z,7.45
2018-07-31T22:14:57.186Z,3.13
2018-07-31T22:17:25.203Z,2.43
2018-07-31T22:19:53.269Z,2.03
2018-07-31T22:22:21.285Z,3.10
2018-07-31T22:24:49.355Z,3.57
2018-07-31T22:27:17.389Z,2.87
2018-07-31T22:29:45.427Z,3.10
2018-07-31T22:32:13.467Z,2.20
2018-07-31T22:34:41.488Z,4.63
2018-07-31T22:37:09.513Z,5.07
2018-07-31T22:39:37.548Z,2.57
2018-07-31T22:42:05.581Z,4.27
2018-07-31T22:44:33.613Z,4.13
2018-07-31T22:47:01.646Z,4.70
2018-07-31T22:49:29.711Z,2.10
2018-07-31T22:51:57.739Z,2.10
2018-07-31T22:54:25.773Z,2.97
2018-07-31T22:56:53.808Z,3.00
2018-07-31T22:59:21.839Z,4.33
2018-07-31T23:01:49.888Z,3.40
2018-07-31T23:04:17.897Z,2.20
2018-07-31T23:06:45.925Z,4.70
2018-07-31T23:09:13.965Z,4.13
2018-07-31T23:11:42.013Z,1.90
2018-07-31T23:14:10.086Z,4.60
2018-07-31T23:16:38.106Z,2.27
2018-07-31T23:19:06.385Z,3.03
2018-07-31T23:21:34.584Z,3.87
2018-07-31T23:24:02.616Z,5.57
2018-07-31T23:26:30.647Z,5.77
2018-07-31T23:28:58.677Z,3.77
2018-07-31T23:31:26.722Z,4.40
2018-07-31T23:33:54.818Z,6.23
2018-07-31T23:36:22.832Z,3.73
2018-07-31T23:38:50.877Z,3.10
2018-07-31T23:41:18.893Z,4.30
2018-07-31T23:43:46.921Z,2.83
2018-07-31T23:46:14.960Z,3.50
2018-07-31T23:48:45.505Z,3.33
2018-07-31T23:51:13.532Z,3.42
2018-07-31T23:53:41.617Z,3.27
2018-07-31T23:56:09.648Z,2.57
2018-07-31T23:58:37.698Z,2.87
